Observations for Trim Patrick St
| Time | AQI | Temp °C | Hum % | Pres Pa | CO μg/m³ | H₂S μg/m³ | NO μg/m³ | NO₂ μg/m³ | O₃ μg/m³ | SO₂ μg/m³ | PM1 μg/m³ | PM2.5 μg/m³ | PM10 μg/m³ |
|---|---|---|---|---|---|---|---|---|---|---|---|---|---|
| Saturday 1 August 2026 | |||||||||||||
| 22:46 | 3 | 17.3 | 57 | 70,615 | 0.19 | 11.25 | 1.19 | 24.77 | 41.28 | 2.2 | 19.14 | 28.44 | 31.29 |
| 22:45 | 3 | 17.4 | 58 | 70,570 | 0.16 | 12.4 | 1.23 | 25.08 | 46.56 | 3.05 | 15.71 | 26.81 | 29.49 |
| 22:44 | 3 | 17.4 | 58 | 70,504 | 0.14 | 11.61 | 1.28 | 32.72 | 31.43 | 2.36 | 15.71 | 28.34 | 31.53 |
| 22:43 | 3 | 17.4 | 57 | 70,421 | 0.06 | 11.67 | 1.28 | 30.65 | 36.36 | 2.7 | 10.57 | 16.44 | 18.09 |
| 22:42 | 3 | 17.4 | 58 | 70,343 | 0.07 | 11.85 | 1.28 | 30.3 | 41.09 | 2.47 | 9.71 | 16.36 | 18 |
| 22:41 | 3 | 17.5 | 58 | 70,261 | 0.06 | 11.98 | 1.27 | 30.22 | 39.08 | 2.92 | 9.71 | 17.86 | 19.65 |
| 22:40 | 3 | 17.5 | 58 | 70,182 | 0.04 | 11.33 | 1.23 | 27.8 | 44.97 | 2.77 | 8 | 16.41 | 18.05 |
| 22:39 | 3 | 17.5 | 58 | 70,111 | 0.03 | 11.35 | 1.27 | 30.57 | 37.8 | 2.72 | 7.14 | 12.66 | 13.93 |
| 22:38 | 3 | 17.5 | 58 | 70,042 | 0 | 11.72 | 1.25 | 34 | 33.41 | 2.53 | 6.29 | 12.66 | 13.93 |
| 22:37 | 3 | 17.6 | 57 | 69,976 | 0 | 12.58 | 1.25 | 33.93 | 37.77 | 2.81 | 4.57 | 9.69 | 10.65 |
| 22:36 | 3 | 17.6 | 57 | 69,864 | 0 | 12.79 | 1.27 | 33.59 | 41.12 | 2.92 | 5.43 | 10.46 | 11.5 |
| 22:35 | 3 | 17.6 | 56 | 69,766 | 0 | 12.35 | 1.26 | 33.94 | 38.1 | 2.64 | 4.57 | 9.81 | 10.79 |
| 22:34 | 3 | 17.6 | 56 | 69,701 | 0 | 11.25 | 1.24 | 30.5 | 45.41 | 2.49 | 4.57 | 9.06 | 9.96 |
| 22:33 | 3 | 17.7 | 56 | 69,673 | 0 | 10.23 | 1.24 | 30.07 | 43.84 | 2.71 | 3.71 | 8.28 | 9.11 |
| 22:32 | 3 | 17.7 | 55 | 69,661 | 0 | 9.1 | 1.28 | 26.87 | 41.12 | 2.87 | 3.71 | 9.12 | 10.03 |
| 22:31 | 3 | 17.7 | 54 | 69,675 | 0 | 9.57 | 1.25 | 25.04 | 44.8 | 2.16 | 3.71 | 9.15 | 10.07 |
| 22:30 | 3 | 17.7 | 55 | 69,667 | 0 | 9.49 | 1.26 | 26.15 | 40.41 | 2.92 | 3.71 | 9.1 | 10.01 |
| 22:29 | 3 | 17.7 | 54 | 69,658 | 0 | 9.65 | 1.21 | 20.4 | 47.51 | 2.8 | 3.71 | 8.39 | 9.23 |
| 22:27 | 3 | 17.8 | 55 | 69,618 | 0 | 10.86 | 1.19 | 34.83 | 34.85 | 2.77 | 3.71 | 8.34 | 9.17 |
| 22:26 | 3 | 17.8 | 55 | 69,593 | 0 | 9.73 | 1.2 | 24.96 | 42.6 | 3.12 | 3.71 | 9.13 | 10.04 |